sensor_id;sensor_type;location;lat;lon;timestamp;pressure;altitude;pressure_sealevel;temperature;humidity
11335;BME280;5722;42.620;23.374;2022-08-03T00:01:30;94093.19;;;16.43;100.00
11335;BME280;5722;42.620;23.374;2022-08-03T00:03:58;94055.28;;;16.21;100.00
11335;BME280;5722;42.620;23.374;2022-08-03T00:06:33;94079.56;;;16.35;100.00
11335;BME280;5722;42.620;23.374;2022-08-03T00:09:07;94070.97;;;16.18;100.00
11335;BME280;5722;42.620;23.374;2022-08-03T00:11:39;93783.50;;;14.36;100.00
11335;BME280;5722;42.620;23.374;2022-08-03T00:14:16;94088.59;;;16.29;100.00
11335;BME280;5722;42.620;23.374;2022-08-03T00:16:57;94056.59;;;16.08;100.00
11335;BME280;5722;42.620;23.374;2022-08-03T00:19:29;94092.31;;;16.28;100.00
11335;BME280;5722;42.620;23.374;2022-08-03T00:22:06;93951.88;;;15.25;100.00
11335;BME280;5722;42.620;23.374;2022-08-03T00:24:42;94056.53;;;16.03;100.00
11335;BME280;5722;42.620;23.374;2022-08-03T00:27:10;94048.25;;;15.95;100.00
11335;BME280;5722;42.620;23.374;2022-08-03T00:29:49;94022.88;;;15.77;100.00
11335;BME280;5722;42.620;23.374;2022-08-03T00:32:16;94131.75;;;15.94;100.00
11335;BME280;5722;42.620;23.374;2022-08-03T00:34:45;94095.97;;;16.17;100.00
11335;BME280;5722;42.620;23.374;2022-08-03T00:37:15;93994.97;;;15.32;100.00
11335;BME280;5722;42.620;23.374;2022-08-03T00:39:44;94096.47;;;16.08;100.00
11335;BME280;5722;42.620;23.374;2022-08-03T00:42:15;94080.47;;;16.03;100.00
11335;BME280;5722;42.620;23.374;2022-08-03T00:44:46;94007.84;;;15.55;100.00
11335;BME280;5722;42.620;23.374;2022-08-03T00:47:45;94084.06;;;15.82;100.00
11335;BME280;5722;42.620;23.374;2022-08-03T00:50:41;94007.69;;;15.30;100.00
11335;BME280;5722;42.620;23.374;2022-08-03T00:53:13;94062.44;;;15.68;100.00
11335;BME280;5722;42.620;23.374;2022-08-03T00:55:51;94081.66;;;15.80;100.00
11335;BME280;5722;42.620;23.374;2022-08-03T00:58:20;94000.50;;;15.31;100.00
11335;BME280;5722;42.620;23.374;2022-08-03T01:00:50;94080.91;;;15.90;100.00
11335;BME280;5722;42.620;23.374;2022-08-03T01:03:45;94075.56;;;15.80;100.00
11335;BME280;5722;42.620;23.374;2022-08-03T01:06:35;94075.75;;;15.73;100.00
11335;BME280;5722;42.620;23.374;2022-08-03T01:09:18;94083.53;;;15.80;100.00
11335;BME280;5722;42.620;23.374;2022-08-03T01:12:27;94069.94;;;15.76;100.00
11335;BME280;5722;42.620;23.374;2022-08-03T01:15:03;94025.53;;;15.03;100.00
11335;BME280;5722;42.620;23.374;2022-08-03T01:17:55;93915.19;;;14.48;100.00
11335;BME280;5722;42.620;23.374;2022-08-03T01:20:46;94072.97;;;15.58;100.00
11335;BME280;5722;42.620;23.374;2022-08-03T01:23:36;94000.59;;;15.04;100.00
11335;BME280;5722;42.620;23.374;2022-08-03T01:26:31;94075.50;;;15.43;100.00
11335;BME280;5722;42.620;23.374;2022-08-03T01:29:34;94079.03;;;15.48;100.00
11335;BME280;5722;42.620;23.374;2022-08-03T01:32:10;94041.63;;;15.23;100.00
11335;BME280;5722;42.620;23.374;2022-08-03T01:34:44;93933.75;;;13.99;100.00
11335;BME280;5722;42.620;23.374;2022-08-03T01:37:23;94073.13;;;15.46;100.00
11335;BME280;5722;42.620;23.374;2022-08-03T01:40:04;93984.44;;;14.78;100.00
11335;BME280;5722;42.620;23.374;2022-08-03T01:42:51;94075.59;;;15.53;100.00
11335;BME280;5722;42.620;23.374;2022-08-03T01:45:50;94032.31;;;15.20;100.00
11335;BME280;5722;42.620;23.374;2022-08-03T01:48:30;93924.47;;;14.50;100.00
11335;BME280;5722;42.620;23.374;2022-08-03T01:51:00;94034.06;;;15.10;100.00
11335;BME280;5722;42.620;23.374;2022-08-03T01:53:30;94076.81;;;15.40;100.00
11335;BME280;5722;42.620;23.374;2022-08-03T01:56:06;94007.88;;;14.86;100.00
11335;BME280;5722;42.620;23.374;2022-08-03T01:58:36;93935.31;;;14.44;100.00
11335;BME280;5722;42.620;23.374;2022-08-03T02:01:13;94071.34;;;15.20;100.00
11335;BME280;5722;42.620;23.374;2022-08-03T02:03:47;94061.81;;;15.24;100.00
11335;BME280;5722;42.620;23.374;2022-08-03T02:06:31;94076.53;;;15.37;100.00
11335;BME280;5722;42.620;23.374;2022-08-03T02:09:05;94080.75;;;15.33;100.00
11335;BME280;5722;42.620;23.374;2022-08-03T02:11:36;94080.19;;;15.31;100.00
11335;BME280;5722;42.620;23.374;2022-08-03T02:14:21;94106.16;;;15.23;100.00
11335;BME280;5722;42.620;23.374;2022-08-03T02:17:01;93822.91;;;13.42;100.00
11335;BME280;5722;42.620;23.374;2022-08-03T02:19:39;94009.41;;;14.82;100.00
11335;BME280;5722;42.620;23.374;2022-08-03T02:22:12;94046.63;;;14.87;100.00
11335;BME280;5722;42.620;23.374;2022-08-03T02:24:56;93951.56;;;14.03;100.00
11335;BME280;5722;42.620;23.374;2022-08-03T02:27:29;94048.97;;;14.84;100.00
11335;BME280;5722;42.620;23.374;2022-08-03T02:30:25;94043.75;;;14.67;100.00
11335;BME280;5722;42.620;23.374;2022-08-03T02:33:15;94079.69;;;15.02;100.00
11335;BME280;5722;42.620;23.374;2022-08-03T02:35:44;94047.25;;;14.46;100.00
11335;BME280;5722;42.620;23.374;2022-08-03T02:38:15;94078.66;;;15.08;100.00
11335;BME280;5722;42.620;23.374;2022-08-03T02:40:49;94078.66;;;15.08;100.00
11335;BME280;5722;42.620;23.374;2022-08-03T02:43:20;93972.72;;;14.47;100.00
11335;BME280;5722;42.620;23.374;2022-08-03T02:45:50;93950.53;;;14.31;100.00
11335;BME280;5722;42.620;23.374;2022-08-03T02:48:36;94055.00;;;15.01;100.00
11335;BME280;5722;42.620;23.374;2022-08-03T02:51:07;94075.22;;;15.07;100.00
11335;BME280;5722;42.620;23.374;2022-08-03T02:53:44;93930.06;;;14.00;100.00
11335;BME280;5722;42.620;23.374;2022-08-03T02:56:33;94085.00;;;15.02;100.00
11335;BME280;5722;42.620;23.374;2022-08-03T02:59:08;93926.19;;;13.86;100.00
11335;BME280;5722;42.620;23.374;2022-08-03T03:01:55;94017.06;;;14.52;100.00
11335;BME280;5722;42.620;23.374;2022-08-03T03:04:41;94063.69;;;14.97;100.00
11335;BME280;5722;42.620;23.374;2022-08-03T03:07:12;94019.88;;;14.67;100.00
11335;BME280;5722;42.620;23.374;2022-08-03T03:09:47;94059.81;;;14.82;100.00
11335;BME280;5722;42.620;23.374;2022-08-03T03:12:17;93904.19;;;13.85;100.00
11335;BME280;5722;42.620;23.374;2022-08-03T03:14:47;94089.69;;;14.94;100.00
11335;BME280;5722;42.620;23.374;2022-08-03T03:17:20;93931.72;;;13.84;100.00
11335;BME280;5722;42.620;23.374;2022-08-03T03:20:08;94108.94;;;14.85;100.00
11335;BME280;5722;42.620;23.374;2022-08-03T03:22:40;94111.69;;;14.90;100.00
11335;BME280;5722;42.620;23.374;2022-08-03T03:25:16;93898.53;;;13.55;100.00
11335;BME280;5722;42.620;23.374;2022-08-03T03:27:54;94104.94;;;14.82;100.00
11335;BME280;5722;42.620;23.374;2022-08-03T03:30:24;93952.00;;;13.73;100.00
11335;BME280;5722;42.620;23.374;2022-08-03T03:33:26;94111.94;;;14.88;100.00
11335;BME280;5722;42.620;23.374;2022-08-03T03:36:00;94112.66;;;14.84;100.00
11335;BME280;5722;42.620;23.374;2022-08-03T03:38:34;94010.34;;;14.22;100.00
11335;BME280;5722;42.620;23.374;2022-08-03T03:41:27;94119.63;;;14.90;100.00
11335;BME280;5722;42.620;23.374;2022-08-03T03:44:14;93799.44;;;12.68;100.00
11335;BME280;5722;42.620;23.374;2022-08-03T03:46:46;94090.47;;;14.68;100.00
11335;BME280;5722;42.620;23.374;2022-08-03T03:49:16;94114.66;;;14.99;100.00
11335;BME280;5722;42.620;23.374;2022-08-03T03:51:53;94106.53;;;14.83;100.00
11335;BME280;5722;42.620;23.374;2022-08-03T03:54:23;94117.94;;;15.06;100.00
11335;BME280;5722;42.620;23.374;2022-08-03T03:57:04;94109.06;;;15.22;100.00
11335;BME280;5722;42.620;23.374;2022-08-03T03:59:32;94119.53;;;15.34;100.00
11335;BME280;5722;42.620;23.374;2022-08-03T04:02:24;94126.84;;;15.48;100.00
11335;BME280;5722;42.620;23.374;2022-08-03T04:04:53;93968.34;;;14.58;100.00
11335;BME280;5722;42.620;23.374;2022-08-03T04:07:55;94125.94;;;15.65;100.00
11335;BME280;5722;42.620;23.374;2022-08-03T04:11:06;94120.22;;;15.51;100.00
11335;BME280;5722;42.620;23.374;2022-08-03T04:14:01;93971.06;;;15.00;100.00
11335;BME280;5722;42.620;23.374;2022-08-03T04:16:35;94004.78;;;15.32;100.00
11335;BME280;5722;42.620;23.374;2022-08-03T04:19:07;94126.81;;;16.12;100.00
11335;BME280;5722;42.620;23.374;2022-08-03T04:21:52;93914.66;;;14.51;100.00
11335;BME280;5722;42.620;23.374;2022-08-03T04:24:27;94025.06;;;15.80;100.00
11335;BME280;5722;42.620;23.374;2022-08-03T04:27:04;94083.28;;;16.34;100.00
11335;BME280;5722;42.620;23.374;2022-08-03T04:29:42;94096.16;;;16.57;100.00
11335;BME280;5722;42.620;23.374;2022-08-03T04:32:20;94116.81;;;16.87;100.00
11335;BME280;5722;42.620;23.374;2022-08-03T04:34:55;94141.88;;;17.07;100.00
11335;BME280;5722;42.620;23.374;2022-08-03T04:37:41;94125.13;;;17.26;100.00
11335;BME280;5722;42.620;23.374;2022-08-03T04:40:30;94061.72;;;17.08;100.00
11335;BME280;5722;42.620;23.374;2022-08-03T04:43:02;94122.53;;;17.62;100.00
11335;BME280;5722;42.620;23.374;2022-08-03T04:45:35;94134.53;;;17.80;100.00
11335;BME280;5722;42.620;23.374;2022-08-03T04:48:04;94134.81;;;17.94;100.00
11335;BME280;5722;42.620;23.374;2022-08-03T04:50:32;94156.13;;;17.83;100.00
11335;BME280;5722;42.620;23.374;2022-08-03T04:53:01;94100.09;;;18.04;100.00
11335;BME280;5722;42.620;23.374;2022-08-03T04:55:41;94064.38;;;17.89;100.00
11335;BME280;5722;42.620;23.374;2022-08-03T04:58:09;94143.78;;;18.43;100.00
11335;BME280;5722;42.620;23.374;2022-08-03T05:00:38;94150.16;;;18.52;100.00
11335;BME280;5722;42.620;23.374;2022-08-03T05:03:05;94048.63;;;18.03;100.00
11335;BME280;5722;42.620;23.374;2022-08-03T05:05:40;94141.31;;;18.77;100.00
11335;BME280;5722;42.620;23.374;2022-08-03T05:08:15;94061.59;;;18.35;100.00
11335;BME280;5722;42.620;23.374;2022-08-03T05:10:55;94032.59;;;18.13;100.00
11335;BME280;5722;42.620;23.374;2022-08-03T05:13:23;94115.09;;;18.90;100.00
11335;BME280;5722;42.620;23.374;2022-08-03T05:16:10;94155.22;;;19.29;100.00
11335;BME280;5722;42.620;23.374;2022-08-03T05:18:53;94152.50;;;19.39;100.00
11335;BME280;5722;42.620;23.374;2022-08-03T05:21:23;94083.75;;;19.05;100.00
11335;BME280;5722;42.620;23.374;2022-08-03T05:24:03;94124.44;;;19.36;100.00
11335;BME280;5722;42.620;23.374;2022-08-03T05:26:36;94150.56;;;19.50;100.00
11335;BME280;5722;42.620;23.374;2022-08-03T05:29:05;94179.63;;;19.66;100.00
11335;BME280;5722;42.620;23.374;2022-08-03T05:31:37;94167.53;;;19.74;100.00
11335;BME280;5722;42.620;23.374;2022-08-03T05:34:12;94087.06;;;19.31;100.00
11335;BME280;5722;42.620;23.374;2022-08-03T05:36:39;94190.66;;;19.94;100.00
11335;BME280;5722;42.620;23.374;2022-08-03T05:39:07;94166.50;;;20.04;100.00
11335;BME280;5722;42.620;23.374;2022-08-03T05:41:38;93961.25;;;18.84;100.00
11335;BME280;5722;42.620;23.374;2022-08-03T05:44:05;94197.41;;;20.20;100.00
11335;BME280;5722;42.620;23.374;2022-08-03T05:46:33;94177.69;;;20.40;100.00
11335;BME280;5722;42.620;23.374;2022-08-03T05:49:01;94036.53;;;19.35;100.00
11335;BME280;5722;42.620;23.374;2022-08-03T05:51:30;94179.97;;;20.57;100.00
11335;BME280;5722;42.620;23.374;2022-08-03T05:54:00;94029.47;;;19.44;100.00
11335;BME280;5722;42.620;23.374;2022-08-03T05:56:31;94032.91;;;19.84;100.00
11335;BME280;5722;42.620;23.374;2022-08-03T05:59:01;94177.53;;;20.84;100.00
11335;BME280;5722;42.620;23.374;2022-08-03T06:01:29;94047.94;;;19.80;100.00
11335;BME280;5722;42.620;23.374;2022-08-03T06:03:57;94005.00;;;19.95;100.00
11335;BME280;5722;42.620;23.374;2022-08-03T06:06:25;94121.03;;;20.81;100.00
11335;BME280;5722;42.620;23.374;2022-08-03T06:08:52;94188.53;;;21.31;100.00
11335;BME280;5722;42.620;23.374;2022-08-03T06:11:28;94203.81;;;21.30;100.00
11335;BME280;5722;42.620;23.374;2022-08-03T06:14:05;94166.09;;;21.22;100.00
11335;BME280;5722;42.620;23.374;2022-08-03T06:16:34;94177.81;;;21.50;100.00
11335;BME280;5722;42.620;23.374;2022-08-03T06:19:01;94178.81;;;21.35;100.00
11335;BME280;5722;42.620;23.374;2022-08-03T06:21:30;93984.66;;;20.42;100.00
11335;BME280;5722;42.620;23.374;2022-08-03T06:24:00;94192.44;;;21.95;100.00
11335;BME280;5722;42.620;23.374;2022-08-03T06:26:27;94125.16;;;21.72;100.00
11335;BME280;5722;42.620;23.374;2022-08-03T06:28:55;94188.09;;;22.18;100.00
11335;BME280;5722;42.620;23.374;2022-08-03T06:31:26;94189.56;;;22.10;100.00
11335;BME280;5722;42.620;23.374;2022-08-03T06:33:57;94045.09;;;21.28;100.00
11335;BME280;5722;42.620;23.374;2022-08-03T06:36:24;94202.59;;;21.98;100.00
11335;BME280;5722;42.620;23.374;2022-08-03T06:38:57;94200.09;;;22.39;100.00
11335;BME280;5722;42.620;23.374;2022-08-03T06:41:25;94110.94;;;22.04;100.00
11335;BME280;5722;42.620;23.374;2022-08-03T06:43:55;94183.28;;;22.47;100.00
11335;BME280;5722;42.620;23.374;2022-08-03T06:46:28;94047.16;;;21.69;100.00
11335;BME280;5722;42.620;23.374;2022-08-03T06:49:10;94201.22;;;22.65;100.00
11335;BME280;5722;42.620;23.374;2022-08-03T06:51:39;94037.69;;;21.90;100.00
11335;BME280;5722;42.620;23.374;2022-08-03T06:54:27;94180.78;;;22.97;100.00
11335;BME280;5722;42.620;23.374;2022-08-03T06:57:11;94217.84;;;23.00;100.00
11335;BME280;5722;42.620;23.374;2022-08-03T06:59:41;94179.59;;;23.31;100.00
11335;BME280;5722;42.620;23.374;2022-08-03T07:02:14;94183.16;;;23.40;100.00
11335;BME280;5722;42.620;23.374;2022-08-03T07:04:45;94150.41;;;23.10;100.00
11335;BME280;5722;42.620;23.374;2022-08-03T07:07:19;94169.00;;;23.48;100.00
11335;BME280;5722;42.620;23.374;2022-08-03T07:09:50;94188.63;;;23.48;100.00
11335;BME280;5722;42.620;23.374;2022-08-03T07:12:37;94176.56;;;23.46;99.35
11335;BME280;5722;42.620;23.374;2022-08-03T07:18:38;94182.03;;;23.68;100.00
11335;BME280;5722;42.620;23.374;2022-08-03T07:21:05;94180.47;;;23.90;100.00
11335;BME280;5722;42.620;23.374;2022-08-03T07:23:38;94147.66;;;23.88;98.81
11335;BME280;5722;42.620;23.374;2022-08-03T07:26:06;94182.00;;;24.27;100.00
11335;BME280;5722;42.620;23.374;2022-08-03T07:28:35;94228.88;;;24.39;94.62
11335;BME280;5722;42.620;23.374;2022-08-03T07:31:04;94198.81;;;24.46;96.68
11335;BME280;5722;42.620;23.374;2022-08-03T07:33:32;94184.66;;;24.40;89.40
11335;BME280;5722;42.620;23.374;2022-08-03T07:36:03;94186.13;;;24.24;86.96
11335;BME280;5722;42.620;23.374;2022-08-03T07:38:34;94068.34;;;23.49;86.29
11335;BME280;5722;42.620;23.374;2022-08-03T07:41:02;94098.91;;;23.89;81.83
11335;BME280;5722;42.620;23.374;2022-08-03T07:43:32;94185.31;;;24.46;84.58
11335;BME280;5722;42.620;23.374;2022-08-03T07:46:00;94191.25;;;24.57;85.43
11335;BME280;5722;42.620;23.374;2022-08-03T07:48:32;94193.09;;;24.70;81.88
11335;BME280;5722;42.620;23.374;2022-08-03T07:51:04;94187.28;;;24.85;84.04
11335;BME280;5722;42.620;23.374;2022-08-03T07:53:32;94187.31;;;24.94;87.67
11335;BME280;5722;42.620;23.374;2022-08-03T07:56:04;94195.16;;;25.04;82.57
11335;BME280;5722;42.620;23.374;2022-08-03T07:58:36;94171.28;;;24.89;76.41
11335;BME280;5722;42.620;23.374;2022-08-03T08:01:05;94212.44;;;25.03;74.88
11335;BME280;5722;42.620;23.374;2022-08-03T08:03:32;94098.72;;;24.30;72.90
11335;BME280;5722;42.620;23.374;2022-08-03T08:06:02;94086.34;;;24.29;73.59
11335;BME280;5722;42.620;23.374;2022-08-03T08:08:30;94168.13;;;24.95;74.34
11335;BME280;5722;42.620;23.374;2022-08-03T08:10:58;94188.34;;;25.07;73.87
11335;BME280;5722;42.620;23.374;2022-08-03T08:13:26;94169.94;;;25.00;72.81
11335;BME280;5722;42.620;23.374;2022-08-03T08:15:54;94193.94;;;25.19;68.49
11335;BME280;5722;42.620;23.374;2022-08-03T08:18:22;94195.69;;;25.23;66.06
11335;BME280;5722;42.620;23.374;2022-08-03T08:20:55;94184.28;;;25.26;69.25
11335;BME280;5722;42.620;23.374;2022-08-03T08:23:25;94199.22;;;25.32;74.58
11335;BME280;5722;42.620;23.374;2022-08-03T08:25:52;94198.94;;;25.43;73.01
11335;BME280;5722;42.620;23.374;2022-08-03T08:28:23;94035.53;;;24.45;74.14
11335;BME280;5722;42.620;23.374;2022-08-03T08:30:55;94197.69;;;25.57;72.46
11335;BME280;5722;42.620;23.374;2022-08-03T08:33:34;94047.38;;;24.66;69.37
11335;BME280;5722;42.620;23.374;2022-08-03T08:36:08;93996.63;;;24.29;68.16
11335;BME280;5722;42.620;23.374;2022-08-03T08:38:37;94113.31;;;25.09;67.97
11335;BME280;5722;42.620;23.374;2022-08-03T08:41:07;94183.56;;;25.60;68.33
11335;BME280;5722;42.620;23.374;2022-08-03T08:43:35;94186.00;;;25.88;69.40
11335;BME280;5722;42.620;23.374;2022-08-03T08:46:04;94172.66;;;25.74;66.93
11335;BME280;5722;42.620;23.374;2022-08-03T08:48:36;94159.41;;;25.55;65.47
11335;BME280;5722;42.620;23.374;2022-08-03T08:51:08;94233.03;;;25.96;65.23
11335;BME280;5722;42.620;23.374;2022-08-03T08:57:10;94119.59;;;25.70;61.41
11335;BME280;5722;42.620;23.374;2022-08-03T08:59:40;94150.72;;;26.10;62.82
11335;BME280;5722;42.620;23.374;2022-08-03T09:02:08;94159.78;;;26.23;62.42
11335;BME280;5722;42.620;23.374;2022-08-03T09:04:37;94064.16;;;25.63;60.80
11335;BME280;5722;42.620;23.374;2022-08-03T09:07:07;94073.25;;;25.76;58.74
11335;BME280;5722;42.620;23.374;2022-08-03T09:09:35;94184.34;;;26.73;59.61
11335;BME280;5722;42.620;23.374;2022-08-03T09:12:26;94050.63;;;26.07;57.88
11335;BME280;5722;42.620;23.374;2022-08-03T09:14:56;94076.28;;;26.47;57.23
11335;BME280;5722;42.620;23.374;2022-08-03T09:17:24;94176.66;;;27.31;55.42
11335;BME280;5722;42.620;23.374;2022-08-03T09:20:05;94074.03;;;26.88;59.40
11335;BME280;5722;42.620;23.374;2022-08-03T09:22:50;94035.72;;;26.86;53.66
11335;BME280;5722;42.620;23.374;2022-08-03T09:25:28;94057.34;;;26.86;55.30
11335;BME280;5722;42.620;23.374;2022-08-03T09:28:08;93964.06;;;26.41;53.26
11335;BME280;5722;42.620;23.374;2022-08-03T09:30:37;94168.53;;;27.90;50.41
11335;BME280;5722;42.620;23.374;2022-08-03T09:33:07;94183.84;;;28.07;51.81
11335;BME280;5722;42.620;23.374;2022-08-03T09:35:41;94168.56;;;28.23;49.40
11335;BME280;5722;42.620;23.374;2022-08-03T09:38:19;94062.00;;;27.35;48.49
11335;BME280;5722;42.620;23.374;2022-08-03T09:40:55;94016.88;;;26.98;48.43
11335;BME280;5722;42.620;23.374;2022-08-03T09:43:24;94185.31;;;28.04;48.62
11335;BME280;5722;42.620;23.374;2022-08-03T09:46:01;94187.34;;;28.07;48.07
11335;BME280;5722;42.620;23.374;2022-08-03T09:48:30;94053.75;;;27.11;48.79
11335;BME280;5722;42.620;23.374;2022-08-03T09:51:02;94170.75;;;28.09;49.69
11335;BME280;5722;42.620;23.374;2022-08-03T09:53:31;94170.06;;;28.12;47.68
11335;BME280;5722;42.620;23.374;2022-08-03T09:56:08;94162.94;;;28.28;48.60
11335;BME280;5722;42.620;23.374;2022-08-03T09:58:46;94168.63;;;28.35;46.82
11335;BME280;5722;42.620;23.374;2022-08-03T10:01:18;94048.94;;;27.79;47.88
11335;BME280;5722;42.620;23.374;2022-08-03T10:03:57;94154.91;;;28.98;47.02
11335;BME280;5722;42.620;23.374;2022-08-03T10:06:25;94125.34;;;28.84;45.92
11335;BME280;5722;42.620;23.374;2022-08-03T10:09:05;94156.03;;;29.21;47.35
11335;BME280;5722;42.620;23.374;2022-08-03T10:11:34;94148.59;;;29.30;44.24
11335;BME280;5722;42.620;23.374;2022-08-03T10:14:05;94131.13;;;29.68;43.84
11335;BME280;5722;42.620;23.374;2022-08-03T10:16:38;94116.31;;;29.65;44.02
11335;BME280;5722;42.620;23.374;2022-08-03T10:19:07;94126.97;;;29.58;42.08
11335;BME280;5722;42.620;23.374;2022-08-03T10:21:41;94150.22;;;29.84;42.75
11335;BME280;5722;42.620;23.374;2022-08-03T10:24:10;94132.75;;;29.97;41.08
11335;BME280;5722;42.620;23.374;2022-08-03T10:27:00;93966.00;;;28.69;40.90
11335;BME280;5722;42.620;23.374;2022-08-03T10:29:37;94117.34;;;29.61;43.23
11335;BME280;5722;42.620;23.374;2022-08-03T10:32:11;94030.38;;;29.21;42.86
11335;BME280;5722;42.620;23.374;2022-08-03T10:34:42;94130.91;;;30.13;40.59
11335;BME280;5722;42.620;23.374;2022-08-03T10:37:20;94135.16;;;29.86;42.50
11335;BME280;5722;42.620;23.374;2022-08-03T10:40:09;94128.97;;;29.73;43.02
11335;BME280;5722;42.620;23.374;2022-08-03T10:42:43;94145.56;;;29.84;42.19
11335;BME280;5722;42.620;23.374;2022-08-03T10:45:19;93974.66;;;28.25;41.79
11335;BME280;5722;42.620;23.374;2022-08-03T10:47:51;94129.00;;;28.88;43.73
11335;BME280;5722;42.620;23.374;2022-08-03T10:50:25;94071.97;;;28.51;43.21
11335;BME280;5722;42.620;23.374;2022-08-03T10:53:33;94010.84;;;27.96;43.12
11335;BME280;5722;42.620;23.374;2022-08-03T10:56:37;94128.09;;;29.21;42.41
11335;BME280;5722;42.620;23.374;2022-08-03T10:59:58;94085.44;;;28.72;41.84
11335;BME280;5722;42.620;23.374;2022-08-03T11:06:17;94116.78;;;29.31;43.74
11335;BME280;5722;42.620;23.374;2022-08-03T11:09:21;94120.44;;;29.47;43.84
11335;BME280;5722;42.620;23.374;2022-08-03T11:11:48;94037.41;;;28.85;41.34
11335;BME280;5722;42.620;23.374;2022-08-03T11:14:17;94062.41;;;29.15;43.83
11335;BME280;5722;42.620;23.374;2022-08-03T11:16:46;94113.97;;;29.27;42.89
11335;BME280;5722;42.620;23.374;2022-08-03T11:19:25;94117.13;;;28.93;43.40
11335;BME280;5722;42.620;23.374;2022-08-03T11:22:11;94108.53;;;28.91;45.39
11335;BME280;5722;42.620;23.374;2022-08-03T11:24:59;94104.78;;;29.44;44.91
11335;BME280;5722;42.620;23.374;2022-08-03T11:27:33;94091.09;;;29.40;42.96
11335;BME280;5722;42.620;23.374;2022-08-03T11:30:07;94117.38;;;29.12;42.35
11335;BME280;5722;42.620;23.374;2022-08-03T11:33:02;94061.97;;;29.13;44.36
11335;BME280;5722;42.620;23.374;2022-08-03T11:35:33;94062.88;;;29.69;42.65
11335;BME280;5722;42.620;23.374;2022-08-03T11:38:10;94071.13;;;29.73;41.16
11335;BME280;5722;42.620;23.374;2022-08-03T11:40:43;94059.53;;;29.88;40.68
11335;BME280;5722;42.620;23.374;2022-08-03T11:46:14;94089.81;;;30.74;42.16
11335;BME280;5722;42.620;23.374;2022-08-03T11:48:47;94086.53;;;30.53;41.03
11335;BME280;5722;42.620;23.374;2022-08-03T11:51:23;94087.44;;;30.29;41.68
11335;BME280;5722;42.620;23.374;2022-08-03T11:54:06;94089.88;;;29.90;39.93
11335;BME280;5722;42.620;23.374;2022-08-03T11:56:44;94085.56;;;29.49;40.30
11335;BME280;5722;42.620;23.374;2022-08-03T11:59:13;94070.66;;;29.19;42.95
11335;BME280;5722;42.620;23.374;2022-08-03T12:01:42;94090.09;;;29.21;43.78
11335;BME280;5722;42.620;23.374;2022-08-03T12:04:13;94082.50;;;29.38;42.42
11335;BME280;5722;42.620;23.374;2022-08-03T12:06:40;94074.44;;;29.66;41.68
11335;BME280;5722;42.620;23.374;2022-08-03T12:09:24;94086.88;;;30.36;43.81
11335;BME280;5722;42.620;23.374;2022-08-03T12:11:51;93958.28;;;30.19;39.90
11335;BME280;5722;42.620;23.374;2022-08-03T12:14:23;94075.38;;;30.42;40.14
11335;BME280;5722;42.620;23.374;2022-08-03T12:16:50;94036.31;;;29.91;43.03
11335;BME280;5722;42.620;23.374;2022-08-03T12:19:19;94077.25;;;29.98;43.64
11335;BME280;5722;42.620;23.374;2022-08-03T12:21:54;94073.56;;;29.90;44.29
11335;BME280;5722;42.620;23.374;2022-08-03T12:24:38;94020.97;;;29.42;46.32
11335;BME280;5722;42.620;23.374;2022-08-03T12:27:06;94075.59;;;29.53;45.82
11335;BME280;5722;42.620;23.374;2022-08-03T12:29:37;94067.22;;;29.58;43.85
11335;BME280;5722;42.620;23.374;2022-08-03T12:32:04;93992.53;;;29.00;41.97
11335;BME280;5722;42.620;23.374;2022-08-03T12:34:45;94067.00;;;29.39;42.17
11335;BME280;5722;42.620;23.374;2022-08-03T12:37:18;93895.06;;;28.30;42.53
11335;BME280;5722;42.620;23.374;2022-08-03T12:39:57;94096.53;;;29.53;45.63
11335;BME280;5722;42.620;23.374;2022-08-03T12:42:30;94083.25;;;29.75;43.94
11335;BME280;5722;42.620;23.374;2022-08-03T12:47:54;93952.00;;;29.59;40.30
11335;BME280;5722;42.620;23.374;2022-08-03T12:50:35;94074.03;;;30.64;38.96
11335;BME280;5722;42.620;23.374;2022-08-03T12:53:08;94119.94;;;30.66;38.50
11335;BME280;5722;42.620;23.374;2022-08-03T12:55:46;93989.22;;;30.30;37.32
11335;BME280;5722;42.620;23.374;2022-08-03T12:58:29;94059.34;;;31.00;37.44
11335;BME280;5722;42.620;23.374;2022-08-03T13:01:09;93928.34;;;30.51;37.24
11335;BME280;5722;42.620;23.374;2022-08-03T13:03:41;94035.72;;;31.20;37.83
11335;BME280;5722;42.620;23.374;2022-08-03T13:06:18;94039.31;;;31.78;37.86
11335;BME280;5722;42.620;23.374;2022-08-03T13:08:47;94037.69;;;31.74;36.96
11335;BME280;5722;42.620;23.374;2022-08-03T13:11:33;94041.25;;;31.78;37.63
11335;BME280;5722;42.620;23.374;2022-08-03T13:14:01;94041.22;;;31.59;37.03
11335;BME280;5722;42.620;23.374;2022-08-03T13:16:29;94051.06;;;31.28;37.62
11335;BME280;5722;42.620;23.374;2022-08-03T13:18:57;94043.31;;;30.79;38.98
11335;BME280;5722;42.620;23.374;2022-08-03T13:21:25;94074.31;;;30.47;40.16
11335;BME280;5722;42.620;23.374;2022-08-03T13:23:52;94055.34;;;30.19;41.09
11335;BME280;5722;42.620;23.374;2022-08-03T13:26:21;94040.34;;;29.97;42.86
11335;BME280;5722;42.620;23.374;2022-08-03T13:28:53;93998.88;;;29.04;44.90
11335;BME280;5722;42.620;23.374;2022-08-03T13:31:22;94059.78;;;29.31;46.34
11335;BME280;5722;42.620;23.374;2022-08-03T13:33:56;93974.69;;;28.38;50.20
11335;BME280;5722;42.620;23.374;2022-08-03T13:36:25;93993.72;;;28.17;53.39
11335;BME280;5722;42.620;23.374;2022-08-03T13:38:53;94064.31;;;28.20;54.93
11335;BME280;5722;42.620;23.374;2022-08-03T13:41:20;93971.22;;;27.38;54.44
11335;BME280;5722;42.620;23.374;2022-08-03T13:43:52;94089.63;;;27.91;56.24
11335;BME280;5722;42.620;23.374;2022-08-03T13:46:24;93921.41;;;26.76;58.30
11335;BME280;5722;42.620;23.374;2022-08-03T13:48:54;93940.00;;;26.99;60.14
11335;BME280;5722;42.620;23.374;2022-08-03T13:51:26;94062.16;;;27.81;60.14
11335;BME280;5722;42.620;23.374;2022-08-03T13:53:56;94060.94;;;27.90;61.33